Time;durP1;ratioP1;P1;durP2;ratioP2;P2;SDS_P1;SDS_P2;PMS_P1;PMS_P2;Temp;Humidity;BMP_temperature;BMP_pressure;BME280_temperature;BME280_humidity;BME280_pressure;Samples;Min_cycle;Max_cycle;Signal;HPM_P1;HPM_P2
2021/03/21 00:00:44;;;;;;;15.30;7.97;;;;;;;-1.35;72.29;99675.66;1702459;84;21212;-69
2021/03/21 00:03:12;;;;;;;13.20;7.70;;;;;;;-1.36;72.43;99675.33;1702463;84;21197;-69
2021/03/21 00:05:41;;;;;;;16.55;8.78;;;;;;;-1.37;72.33;99676.84;1702780;84;21192;-69
2021/03/21 00:08:16;;;;;;;10.80;6.92;;;;;;;-1.40;72.57;99674.06;1678266;84;21196;-69
2021/03/21 00:10:49;;;;;;;11.43;7.03;;;;;;;-1.43;72.50;99674.47;1702646;84;21197;-69
2021/03/21 00:13:20;;;;;;;11.38;6.50;;;;;;;-1.46;72.66;99676.20;1702051;84;21331;-69
2021/03/21 00:15:48;;;;;;;12.95;7.65;;;;;;;-1.53;72.75;99674.00;1702804;84;21192;-69
2021/03/21 00:18:17;;;;;;;14.38;8.08;;;;;;;-1.55;72.81;99672.84;1686161;84;21204;-69
2021/03/21 00:20:45;;;;;;;14.78;7.75;;;;;;;-1.60;73.02;99667.78;1702694;84;21192;-69
2021/03/21 00:23:13;;;;;;;13.43;7.45;;;;;;;-1.60;73.12;99667.78;1702449;84;21290;-69
2021/03/21 00:25:40;;;;;;;14.78;8.55;;;;;;;-1.67;73.35;99666.41;1698150;84;21308;-69
2021/03/21 00:28:12;;;;;;;14.83;8.60;;;;;;;-1.68;73.51;99664.75;1646626;87;21199;-70
2021/03/21 00:30:43;;;;;;;14.65;8.03;;;;;;;-1.71;73.74;99664.32;1643764;87;21263;-70
2021/03/21 00:33:13;;;;;;;12.20;7.47;;;;;;;-1.75;74.08;99663.05;1646468;87;21214;-69
2021/03/21 00:35:40;;;;;;;12.58;7.95;;;;;;;-1.77;74.10;99659.77;1639483;86;21255;-69
2021/03/21 00:38:31;;;;;;;14.65;7.45;;;;;;;-1.79;74.20;99667.95;1649145;85;21176;-69
2021/03/21 00:40:59;;;;;;;11.30;6.92;;;;;;;-1.80;74.24;99666.30;1630136;88;21170;-68
2021/03/21 00:43:27;;;;;;;11.25;7.17;;;;;;;-1.80;74.37;99657.46;1651260;87;21213;-68
2021/03/21 00:45:55;;;;;;;11.25;6.87;;;;;;;-1.82;74.40;99660.84;1621370;88;21202;-68
2021/03/21 00:48:36;;;;;;;15.23;7.50;;;;;;;-1.83;74.44;99659.19;1623240;87;21221;-71
2021/03/21 00:51:26;;;;;;;12.70;6.97;;;;;;;-1.86;74.54;99656.91;1623371;88;21528;-70
2021/03/21 00:53:53;;;;;;;12.68;6.67;;;;;;;-1.91;74.83;99660.69;1622925;87;21238;-69
2021/03/21 00:56:35;;;;;;;12.50;6.78;;;;;;;-1.90;74.66;99650.30;1608405;87;21604;-69
2021/03/21 00:59:03;;;;;;;10.55;6.75;;;;;;;-1.95;74.90;99655.42;1589716;88;21268;-69
2021/03/21 01:01:32;;;;;;;11.80;7.08;;;;;;;-1.96;74.91;99652.42;1595966;90;21674;-69
2021/03/21 01:04:01;;;;;;;11.75;7.10;;;;;;;-1.99;75.01;99649.64;1602779;88;21176;-70
2021/03/21 01:06:29;;;;;;;10.75;6.75;;;;;;;-2.00;75.01;99653.31;1622799;88;21257;-70
2021/03/21 01:09:05;;;;;;;11.50;7.20;;;;;;;-2.02;74.98;99652.70;1622803;87;21223;-69
2021/03/21 01:11:35;;;;;;;10.28;6.30;;;;;;;-2.02;75.06;99644.70;1622880;88;21212;-70
2021/03/21 01:14:03;;;;;;;10.80;6.58;;;;;;;-2.04;75.07;99645.38;1620940;87;21658;-69
2021/03/21 01:16:37;;;;;;;11.38;7.17;;;;;;;-2.07;75.13;99645.27;1615667;87;21669;-70
2021/03/21 01:19:08;;;;;;;12.58;6.78;;;;;;;-2.08;75.34;99645.45;1595925;88;21440;-70
2021/03/21 01:21:43;;;;;;;11.70;7.10;;;;;;;-2.07;75.18;99644.44;1596108;90;21232;-69
2021/03/21 01:24:08;;;;;;;13.08;7.15;;;;;;;-2.15;75.24;99650.73;1613194;87;21208;-70
2021/03/21 01:26:36;;;;;;;12.95;6.92;;;;;;;-2.16;75.36;99640.27;1599566;88;21243;-69
2021/03/21 01:29:04;;;;;;;13.85;7.70;;;;;;;-2.20;75.35;99643.00;1623003;87;21223;-70
2021/03/21 01:31:32;;;;;;;12.75;7.58;;;;;;;-2.20;75.37;99645.16;1622684;88;21233;-70
2021/03/21 01:33:59;;;;;;;14.45;7.87;;;;;;;-2.23;75.44;99642.06;1620843;87;21220;-69
2021/03/21 01:36:32;;;;;;;12.18;7.22;;;;;;;-2.24;75.41;99641.73;1622563;88;21236;-70
2021/03/21 01:39:04;;;;;;;12.82;7.47;;;;;;;-2.27;75.46;99636.28;1623076;87;21631;-69
2021/03/21 01:41:39;;;;;;;11.70;6.50;;;;;;;-2.27;75.35;99642.95;1622944;88;21640;-70
2021/03/21 01:44:10;;;;;;;11.48;6.25;;;;;;;-2.27;75.36;99640.28;1597132;88;21244;-69
2021/03/21 01:46:57;;;;;;;11.25;7.05;;;;;;;-2.28;75.45;99635.95;1597119;90;21228;-69
2021/03/21 01:49:33;;;;;;;13.85;7.53;;;;;;;-2.30;75.40;99637.97;1597004;88;21792;-70
2021/03/21 01:52:02;;;;;;;14.63;8.08;;;;;;;-2.32;75.47;99631.19;1603941;87;21238;-69
2021/03/21 01:54:31;;;;;;;13.15;7.65;;;;;;;-2.33;75.59;99627.70;1655380;87;21212;-70
2021/03/21 01:56:58;;;;;;;14.28;7.62;;;;;;;-2.33;75.58;99629.53;1652511;87;21214;-69
2021/03/21 01:59:29;;;;;;;13.28;7.28;;;;;;;-2.32;75.48;99630.69;1606243;88;21709;-70
2021/03/21 02:02:00;;;;;;;11.20;6.78;;;;;;;-2.31;75.45;99630.19;1630017;88;21368;-70
2021/03/21 02:04:28;;;;;;;12.50;6.62;;;;;;;-2.34;75.51;99619.91;1631297;87;21198;-69
2021/03/21 02:07:17;;;;;;;12.65;7.28;;;;;;;-2.37;75.59;99621.09;1630117;87;21380;-69
2021/03/21 02:10:13;;;;;;;10.78;6.53;;;;;;;-2.38;75.69;99619.47;1630008;88;21275;-69
2021/03/21 02:13:03;;;;;;;12.15;6.95;;;;;;;-2.40;75.64;99609.48;1641315;87;21150;-71
2021/03/21 02:16:00;;;;;;;10.38;5.85;;;;;;;-2.43;75.84;99606.38;1654420;85;21202;-71
2021/03/21 02:18:55;;;;;;;10.98;6.40;;;;;;;-2.44;75.74;99608.21;1624857;87;21247;-71
2021/03/21 02:21:34;;;;;;;11.65;6.47;;;;;;;-2.44;75.71;99602.88;1654346;87;21207;-70
2021/03/21 02:24:30;;;;;;;9.88;5.83;;;;;;;-2.44;75.68;99606.88;1630583;87;21214;-70
2021/03/21 02:27:06;;;;;;;10.72;6.20;;;;;;;-2.40;75.53;99608.66;1649435;87;21662;-70
2021/03/21 02:29:51;;;;;;;11.47;6.93;;;;;;;-2.45;75.50;99599.92;1626684;88;21232;-71
2021/03/21 02:32:33;;;;;;;12.28;6.40;;;;;;;-2.47;75.55;99599.27;1626332;88;21214;-71
2021/03/21 02:35:24;;;;;;;11.60;6.80;;;;;;;-2.46;75.46;99598.77;1653618;87;21170;-70
2021/03/21 02:38:18;;;;;;;12.00;6.53;;;;;;;-2.47;75.46;99599.77;1654332;85;21250;-69
2021/03/21 02:41:00;;;;;;;11.63;6.37;;;;;;;-2.51;75.47;99589.50;1651554;87;21217;-70
2021/03/21 02:43:36;;;;;;;11.28;6.15;;;;;;;-2.52;75.40;99589.20;1629034;87;21793;-70
2021/03/21 02:46:15;;;;;;;12.13;6.72;;;;;;;-2.56;75.49;99590.59;1626494;88;21187;-70
2021/03/21 02:48:52;;;;;;;13.10;5.87;;;;;;;-2.57;75.64;99596.11;1626090;88;21225;-70
2021/03/21 02:51:35;;;;;;;14.83;7.45;;;;;;;-2.61;75.82;99590.83;1626054;88;21218;-70
2021/03/21 02:54:13;;;;;;;14.60;7.42;;;;;;;-2.62;75.93;99592.67;1652696;85;21220;-71
2021/03/21 02:56:44;;;;;;;12.35;7.53;;;;;;;-2.63;75.87;99584.88;1616134;87;21159;-70
2021/03/21 02:59:15;;;;;;;14.73;8.20;;;;;;;-2.63;75.82;99583.05;1628263;87;21671;-71
2021/03/21 03:01:48;;;;;;;17.50;8.50;;;;;;;-2.64;75.84;99580.05;1627922;87;21183;-70
2021/03/21 03:04:30;;;;;;;18.70;9.88;;;;;;;-2.68;75.89;99581.45;1626734;88;21234;-69
2021/03/21 03:07:14;;;;;;;16.50;8.75;;;;;;;-2.68;76.00;99576.63;1626519;88;21691;-70
2021/03/21 03:09:48;;;;;;;13.70;7.72;;;;;;;-2.71;76.03;99577.84;1626667;88;21574;-69
2021/03/21 03:12:24;;;;;;;12.88;7.75;;;;;;;-2.73;76.09;99575.05;1628449;87;21242;-70
2021/03/21 03:14:52;;;;;;;13.70;7.72;;;;;;;-2.74;76.09;99574.23;1626892;87;21228;-70
2021/03/21 03:17:38;;;;;;;14.93;7.97;;;;;;;-2.72;76.06;99574.02;1626628;87;21250;-70
2021/03/21 03:20:33;;;;;;;13.20;8.28;;;;;;;-2.76;76.03;99578.91;1627433;87;21340;-69
2021/03/21 03:23:06;;;;;;;13.43;7.62;;;;;;;-2.74;76.02;99571.56;1680713;85;21180;-69
2021/03/21 03:26:09;;;;;;;12.47;7.35;;;;;;;-2.75;75.97;99568.57;1680785;85;21241;-69
2021/03/21 03:29:00;;;;;;;11.85;6.75;;;;;;;-2.77;75.96;99571.95;1680679;85;21619;-70
2021/03/21 03:31:53;;;;;;;12.10;7.00;;;;;;;-2.78;75.94;99564.13;1679011;85;21200;-70
2021/03/21 03:34:21;;;;;;;13.62;7.42;;;;;;;-2.84;76.06;99561.73;1680831;85;21176;-69
2021/03/21 03:36:49;;;;;;;13.05;7.03;;;;;;;-2.88;76.12;99561.79;1680787;85;21651;-69
2021/03/21 03:39:16;;;;;;;10.43;6.70;;;;;;;-2.87;76.08;99561.29;1680656;85;21187;-70
2021/03/21 03:41:58;;;;;;;11.25;7.12;;;;;;;-2.87;76.07;99564.75;1655481;85;21232;-69
2021/03/21 03:44:41;;;;;;;10.05;5.95;;;;;;;-2.90;76.18;99555.81;1680732;85;21195;-70
2021/03/21 03:47:21;;;;;;;9.73;6.08;;;;;;;-2.95;76.40;99553.41;1680585;85;21172;-69
2021/03/21 03:50:09;;;;;;;11.80;6.92;;;;;;;-2.95;76.52;99552.08;1678833;85;21515;-70
2021/03/21 03:52:51;;;;;;;14.90;6.60;;;;;;;-2.94;76.62;99557.20;1673539;85;21658;-70
2021/03/21 03:55:27;;;;;;;12.37;6.58;;;;;;;-2.90;76.58;99555.81;1653231;87;21208;-70
2021/03/21 03:58:02;;;;;;;13.10;6.65;;;;;;;-2.92;76.67;99551.20;1653534;85;21200;-69
2021/03/21 04:00:42;;;;;;;12.07;6.35;;;;;;;-2.94;76.71;99549.20;1680728;85;21322;-70
2021/03/21 04:03:32;;;;;;;14.03;7.25;;;;;;;-2.97;76.74;99549.59;1680735;85;21222;-70
2021/03/21 04:06:07;;;;;;;12.58;7.00;;;;;;;-2.98;76.78;99549.30;1680843;85;21604;-71
2021/03/21 04:08:52;;;;;;;12.95;7.78;;;;;;;-2.99;76.70;99544.97;1678546;85;21160;-71
2021/03/21 04:11:34;;;;;;;13.88;7.80;;;;;;;-3.01;76.76;99544.32;1680388;85;21157;-70
2021/03/21 04:14:29;;;;;;;12.40;7.15;;;;;;;-2.97;76.63;99542.94;1680649;85;21372;-70
2021/03/21 04:17:08;;;;;;;12.85;7.47;;;;;;;-2.99;76.68;99549.47;1680023;85;21172;-70
2021/03/21 04:19:49;;;;;;;13.55;7.67;;;;;;;-2.98;76.89;99551.96;1758785;79;23638;-71
2021/03/21 04:22:27;;;;;;;13.58;7.12;;;;;;;-3.02;76.84;99548.85;1697404;83;21529;-71
2021/03/21 04:25:00;;;;;;;11.00;7.05;;;;;;;-3.05;76.92;99550.53;1649773;87;21236;-71
2021/03/21 04:27:33;;;;;;;10.25;6.17;;;;;;;-2.99;76.96;99556.95;1654727;86;21695;-71
2021/03/21 04:30:07;;;;;;;10.53;6.70;;;;;;;-3.03;77.02;99549.02;1669167;85;21192;-70
2021/03/21 04:32:41;;;;;;;10.00;6.50;;;;;;;-3.00;77.13;99556.63;1684063;85;21190;-71
2021/03/21 04:35:21;;;;;;;10.30;6.92;;;;;;;-2.94;77.04;99556.41;1683562;85;21191;-73
2021/03/21 04:38:00;;;;;;;11.22;7.03;;;;;;;-2.94;77.10;99545.21;1683970;85;21610;-70
2021/03/21 04:40:28;;;;;;;11.93;6.97;;;;;;;-2.88;77.04;99545.81;1683802;85;21191;-71
2021/03/21 04:43:01;;;;;;;11.75;7.35;;;;;;;-2.83;76.97;99546.55;1684057;85;21571;-70
2021/03/21 04:45:35;;;;;;;13.00;7.15;;;;;;;-2.75;76.92;99548.59;1684120;85;21158;-71
2021/03/21 04:48:05;;;;;;;13.03;7.70;;;;;;;-2.69;76.84;99541.66;1684052;85;21389;-70
2021/03/21 04:50:33;;;;;;;13.35;8.03;;;;;;;-2.77;76.72;99508.51;1677040;85;21167;-72
2021/03/21 04:53:23;;;;;;;10.63;6.67;;;;;;;-2.52;76.71;99538.56;1660336;85;21334;-72
2021/03/21 04:56:00;;;;;;;11.65;7.92;;;;;;;-2.48;76.81;99537.67;1651184;87;21145;-70
2021/03/21 04:58:52;;;;;;;12.18;7.00;;;;;;;-2.38;76.91;99539.98;1656284;85;21192;-71
2021/03/21 05:01:25;;;;;;;11.12;6.92;;;;;;;-2.24;76.82;99541.23;1656477;86;21578;-71
2021/03/21 05:04:18;;;;;;;11.05;7.35;;;;;;;-2.16;76.74;99535.73;1650867;85;21200;-72
2021/03/21 05:07:00;;;;;;;14.00;7.95;;;;;;;-2.07;76.55;99539.91;1650754;87;21324;-71
2021/03/21 05:09:40;;;;;;;15.13;8.78;;;;;;;-1.97;75.93;99536.88;1646426;85;21761;-70
2021/03/21 05:12:32;;;;;;;12.80;7.60;;;;;;;-1.88;75.65;99538.39;1641646;85;21207;-72
2021/03/21 05:15:19;;;;;;;13.32;7.70;;;;;;;-1.87;75.41;99542.69;1683950;85;21196;-70
2021/03/21 05:18:23;;;;;;;12.70;7.87;;;;;;;-1.80;75.37;99539.55;1678002;85;21179;-70
2021/03/21 05:21:08;;;;;;;14.45;9.30;;;;;;;-1.70;75.25;99536.00;1715241;83;21265;-72
2021/03/21 05:23:48;;;;;;;15.83;8.45;;;;;;;-1.65;75.06;99543.42;1715197;83;21201;-70
2021/03/21 05:26:45;;;;;;;13.80;8.65;;;;;;;-1.56;74.77;99540.92;1715511;83;21164;-71
2021/03/21 05:29:33;;;;;;;15.32;10.03;;;;;;;-1.54;74.70;99538.86;1702051;83;21702;-71
2021/03/21 05:32:07;;;;;;;18.40;11.63;;;;;;;-1.44;74.52;99535.81;1767145;79;22872;-69
2021/03/21 05:34:35;;;;;;;20.35;12.20;;;;;;;-1.46;74.17;99537.36;1705765;83;21364;-69
2021/03/21 05:37:34;;;;;;;18.70;11.93;;;;;;;-1.40;74.00;99531.22;1668661;83;21189;-69
2021/03/21 05:40:36;;;;;;;19.92;11.95;;;;;;;-1.35;73.62;99528.78;1722025;83;21192;-69
2021/03/21 05:43:32;;;;;;;21.48;13.53;;;;;;;-1.26;73.47;99528.90;1680579;83;21818;-70
2021/03/21 05:46:43;;;;;;;20.62;12.60;;;;;;;-1.28;73.56;99526.95;1722677;83;21169;-68
2021/03/21 05:49:32;;;;;;;22.50;12.85;;;;;;;-1.14;73.52;99525.14;1720519;83;21168;-69
2021/03/21 05:52:28;;;;;;;18.70;12.50;;;;;;;-1.06;73.03;99525.77;1722831;83;21188;-68
2021/03/21 05:55:20;;;;;;;16.77;10.80;;;;;;;-0.90;71.85;99529.09;1722330;83;21435;-69
2021/03/21 05:58:22;;;;;;;19.85;12.53;;;;;;;-0.86;71.40;99527.16;1722170;83;21593;-68
2021/03/21 06:01:47;;;;;;;20.62;13.10;;;;;;;-0.79;71.66;99522.64;1722825;83;21656;-68
2021/03/21 06:04:40;;;;;;;21.25;13.38;;;;;;;-0.69;71.40;99524.91;1615182;87;21209;-69
2021/03/21 06:07:40;;;;;;;21.15;13.25;;;;;;;-0.63;69.47;99514.21;1706272;83;21168;-69
2021/03/21 06:10:41;;;;;;;23.02;13.95;;;;;;;-0.47;70.00;99518.34;1714486;83;21199;-69
2021/03/21 06:13:54;;;;;;;24.43;14.65;;;;;;;-0.37;69.17;99521.42;1693927;84;21822;-69
2021/03/21 06:17:16;;;;;;;24.07;15.68;;;;;;;-0.26;68.98;99518.13;1707998;83;21205;-69
2021/03/21 06:19:55;;;;;;;21.70;14.38;;;;;;;-0.13;67.89;99514.08;1722187;83;21207;-68
2021/03/21 06:22:44;;;;;;;23.10;15.93;;;;;;;-0.14;67.50;99511.61;1722824;83;21185;-69
2021/03/21 06:25:26;;;;;;;21.87;14.87;;;;;;;-0.17;68.10;99512.02;1722665;82;21190;-69
2021/03/21 06:28:25;;;;;;;22.05;15.45;;;;;;;-0.17;68.96;99516.86;1720731;83;21133;-70
2021/03/21 06:31:23;;;;;;;21.23;14.85;;;;;;;-0.18;68.38;99515.75;1717847;83;21637;-69
2021/03/21 06:34:17;;;;;;;20.95;14.70;;;;;;;-0.27;68.71;99505.77;1710018;84;21215;-69
2021/03/21 06:36:53;;;;;;;22.60;14.50;;;;;;;-0.31;69.06;99501.03;1681487;85;21213;-71
2021/03/21 06:39:29;;;;;;;21.52;15.15;;;;;;;-0.34;69.66;99497.44;1643186;85;21173;-71
2021/03/21 06:42:30;;;;;;;26.12;19.10;;;;;;;-0.28;69.31;99488.06;1681240;85;21169;-69
2021/03/21 06:45:12;;;;;;;22.87;15.48;;;;;;;-0.14;69.31;99483.52;1682658;84;21210;-69
2021/03/21 06:49:45;;;;;;;25.40;17.73;;;;;;;0.14;68.83;99481.92;1810089;79;23046;-69
2021/03/21 06:52:39;;;;;;;25.40;16.60;;;;;;;0.08;67.89;99478.73;1701170;84;21416;-71
2021/03/21 06:55:15;;;;;;;52.40;32.55;;;;;;;0.11;67.79;99477.00;1715251;83;21817;-71
2021/03/21 06:58:15;;;;;;;23.22;16.27;;;;;;;0.24;67.50;99469.73;1700075;84;21192;-71
2021/03/21 07:01:07;;;;;;;22.20;14.90;;;;;;;0.39;66.44;99464.92;1664833;84;21342;-70
2021/03/21 07:04:12;;;;;;;24.75;16.97;;;;;;;0.49;65.86;99465.31;1702371;84;21177;-68
2021/03/21 07:07:19;;;;;;;22.22;15.15;;;;;;;0.62;65.26;99457.71;1699807;84;21196;-68
2021/03/21 07:10:40;;;;;;;24.37;17.00;;;;;;;0.57;64.00;99446.80;1702794;84;21209;-67
2021/03/21 07:13:47;;;;;;;26.20;17.32;;;;;;;0.58;65.03;99450.31;1699646;84;21248;-69
2021/03/21 07:16:54;;;;;;;30.85;20.05;;;;;;;0.61;64.13;99449.88;1703323;83;21145;-70
2021/03/21 07:19:59;;;;;;;27.02;18.12;;;;;;;0.59;63.50;99432.70;1702890;84;21188;-71
2021/03/21 07:23:10;;;;;;;24.90;15.55;;;;;;;0.63;63.12;99437.11;1671996;84;21224;-69
2021/03/21 07:25:46;;;;;;;23.95;16.40;;;;;;;0.67;62.44;99431.11;1698339;84;21648;-69
2021/03/21 07:28:56;;;;;;;26.77;17.50;;;;;;;0.63;61.49;99429.89;1702841;84;21630;-71
2021/03/21 07:31:59;;;;;;;24.52;17.10;;;;;;;0.62;61.48;99426.08;1729426;83;21326;-69
2021/03/21 07:34:47;;;;;;;22.55;16.05;;;;;;;0.65;61.84;99422.45;1710853;83;21145;-71
2021/03/21 07:37:32;;;;;;;23.30;15.58;;;;;;;0.92;60.18;99419.09;1721663;83;21614;-69
2021/03/21 07:40:25;;;;;;;21.77;14.63;;;;;;;1.05;58.28;99410.12;1699379;84;21745;-70
2021/03/21 07:43:32;;;;;;;22.02;14.70;;;;;;;1.13;57.29;99409.86;1699662;84;21172;-71
2021/03/21 07:46:26;;;;;;;24.70;15.10;;;;;;;1.24;58.08;99399.77;1702973;84;21166;-69
2021/03/21 07:49:15;;;;;;;22.37;14.95;;;;;;;1.34;56.79;99395.55;1694411;84;21199;-69
2021/03/21 07:52:09;;;;;;;22.25;14.38;;;;;;;1.51;56.79;99383.72;1751432;81;21135;-70
2021/03/21 07:54:55;;;;;;;21.07;14.18;;;;;;;1.64;56.32;99382.75;1753050;82;21767;-69
2021/03/21 07:57:57;;;;;;;22.05;15.32;;;;;;;1.59;55.12;99381.27;1754240;81;21640;-68
2021/03/21 08:00:25;;;;;;;22.67;14.18;;;;;;;1.47;54.41;99377.16;1753685;81;21166;-69
2021/03/21 08:03:16;;;;;;;23.75;15.13;;;;;;;1.30;54.25;99383.62;1753557;82;21182;-69
2021/03/21 08:05:43;;;;;;;21.12;14.90;;;;;;;1.23;54.60;99375.33;1744109;80;21201;-70
2021/03/21 08:08:27;;;;;;;18.13;15.37;;;;;;;1.21;55.24;99374.70;1779060;79;28700;-70
2021/03/21 08:11:00;;;;;;;20.85;15.30;;;;;;;1.58;54.21;99364.87;1757856;81;21150;-70
2021/03/21 08:13:42;;;;;;;19.62;13.22;;;;;;;1.85;53.16;99360.32;1760343;81;21170;-70
2021/03/21 08:16:23;;;;;;;19.40;12.88;;;;;;;1.84;53.70;99356.53;1759982;81;21142;-69
2021/03/21 08:18:51;;;;;;;19.85;12.30;;;;;;;1.74;52.38;99350.33;1760256;81;21173;-71
2021/03/21 08:21:28;;;;;;;16.93;11.90;;;;;;;1.75;51.86;99344.44;1759873;81;21143;-71
2021/03/21 08:24:01;;;;;;;17.40;11.78;;;;;;;1.81;52.73;99342.20;1760204;81;21178;-71
2021/03/21 08:26:32;;;;;;;17.75;12.40;;;;;;;2.00;52.15;99342.48;1760285;81;21114;-69
2021/03/21 08:29:07;;;;;;;18.42;12.58;;;;;;;2.07;51.51;99339.72;1741388;81;21166;-71
2021/03/21 08:31:45;;;;;;;15.95;11.40;;;;;;;2.11;50.55;99324.80;1760045;80;21142;-70
2021/03/21 08:34:39;;;;;;;20.15;12.80;;;;;;;2.21;51.71;99321.03;1758036;81;21181;-71
2021/03/21 08:37:21;;;;;;;17.55;11.65;;;;;;;2.33;50.59;99317.88;1757714;81;21196;-70
2021/03/21 08:40:02;;;;;;;16.48;11.68;;;;;;;2.46;51.61;99310.97;1760396;81;21180;-69
2021/03/21 08:42:34;;;;;;;17.82;11.57;;;;;;;2.63;50.78;99302.53;1759997;81;21695;-70
2021/03/21 08:45:30;;;;;;;16.30;11.28;;;;;;;2.64;48.57;99302.83;1761169;81;21239;-70
2021/03/21 08:48:24;;;;;;;15.15;10.95;;;;;;;2.58;50.15;99302.42;1760673;81;21138;-69
2021/03/21 08:50:55;;;;;;;15.93;9.85;;;;;;;2.72;48.04;99287.72;1785659;80;21130;-70
2021/03/21 08:53:43;;;;;;;16.80;11.12;;;;;;;2.47;46.58;99294.63;1724969;83;21688;-69
2021/03/21 08:56:31;;;;;;;15.78;10.58;;;;;;;2.51;48.89;99293.64;1780713;79;23135;-69
2021/03/21 08:59:38;;;;;;;15.30;10.63;;;;;;;2.50;47.63;99283.94;1744785;82;21188;-69
2021/03/21 09:02:11;;;;;;;14.28;10.35;;;;;;;2.54;47.88;99292.36;1694762;83;21207;-70
2021/03/21 09:05:09;;;;;;;17.90;10.95;;;;;;;2.56;47.39;99283.00;1715514;83;21152;-68
2021/03/21 09:07:38;;;;;;;13.93;10.20;;;;;;;2.64;48.16;99283.20;1687054;85;21217;-69
2021/03/21 09:10:29;;;;;;;15.13;10.80;;;;;;;2.78;47.79;99273.34;1698234;83;21545;-68
2021/03/21 09:13:21;;;;;;;14.87;9.75;;;;;;;2.80;46.25;99265.06;1722864;83;21166;-70
2021/03/21 09:16:02;;;;;;;14.68;9.78;;;;;;;2.72;47.19;99270.77;1723178;83;21593;-70
2021/03/21 09:18:42;;;;;;;15.60;10.48;;;;;;;2.73;47.23;99260.33;1720465;83;21656;-69
2021/03/21 09:21:23;;;;;;;15.15;10.08;;;;;;;2.64;46.91;99256.33;1692559;85;21347;-69
2021/03/21 09:24:08;;;;;;;28.62;16.17;;;;;;;2.67;47.18;99253.17;1692553;85;21192;-71
2021/03/21 09:26:45;;;;;;;13.10;8.70;;;;;;;2.86;47.73;99248.81;1692731;85;21154;-70
2021/03/21 09:29:36;;;;;;;15.43;9.83;;;;;;;3.04;45.05;99240.33;1650165;87;21226;-69
2021/03/21 09:32:08;;;;;;;15.40;9.65;;;;;;;2.96;45.21;99230.75;1657528;85;21600;-70
2021/03/21 09:34:45;;;;;;;14.73;9.30;;;;;;;3.02;44.12;99235.17;1676263;84;21177;-70
2021/03/21 09:37:14;;;;;;;13.03;8.50;;;;;;;3.10;44.47;99234.83;1679211;85;21528;-70
2021/03/21 09:40:03;;;;;;;19.42;10.98;;;;;;;3.09;43.27;99226.98;1677945;85;21204;-69
2021/03/21 09:42:30;;;;;;;14.63;9.40;;;;;;;3.09;44.05;99217.05;1678848;85;21189;-69
2021/03/21 09:44:58;;;;;;;15.13;9.83;;;;;;;3.12;44.04;99208.50;1678787;85;21327;-72
2021/03/21 09:47:56;;;;;;;13.60;9.13;;;;;;;3.18;44.64;99216.99;1678577;85;21188;-71
2021/03/21 09:50:49;;;;;;;;;;;;;;;3.32;43.11;99209.47;1654195;85;21178;-70
2021/03/21 09:53:58;;;;;;;13.78;8.40;;;;;;;3.43;44.01;99213.48;1650025;85;20194;-71
2021/03/21 09:56:50;;;;;;;12.25;7.75;;;;;;;3.55;43.34;99200.50;1780318;79;22682;-70
2021/03/21 09:59:42;;;;;;;13.18;7.80;;;;;;;3.39;42.88;99200.74;1740097;82;21147;-69
2021/03/21 10:02:37;;;;;;;16.07;9.90;;;;;;;3.37;44.25;99192.89;1723331;83;21146;-70
2021/03/21 10:05:46;;;;;;;12.00;7.97;;;;;;;3.44;43.15;99195.45;1716143;83;21200;-70
2021/03/21 10:09:00;;;;;;;30.25;14.63;;;;;;;3.48;42.73;99189.88;1722292;82;21164;-70
2021/03/21 10:11:37;;;;;;;21.60;12.55;;;;;;;3.50;44.38;99179.71;1722489;83;21597;-70
2021/03/21 10:14:29;;;;;;;31.95;14.45;;;;;;;3.68;43.19;99171.45;1723086;83;21226;-70
2021/03/21 10:17:19;;;;;;;12.73;8.18;;;;;;;3.82;43.04;99174.14;1710020;83;21157;-70
2021/03/21 10:19:55;;;;;;;23.38;12.10;;;;;;;3.92;42.97;99171.63;1688479;85;21174;-69
2021/03/21 10:22:34;;;;;;;27.40;14.38;;;;;;;3.89;43.59;99173.46;1692820;85;21137;-70
2021/03/21 10:25:16;;;;;;;49.60;23.30;;;;;;;3.96;43.46;99157.15;1692617;85;21226;-69
2021/03/21 10:27:45;;;;;;;22.60;12.28;;;;;;;4.09;44.57;99163.56;1710230;83;21584;-70
2021/03/21 10:30:31;;;;;;;21.12;12.05;;;;;;;4.31;42.87;99152.88;1723141;83;21150;-70
2021/03/21 10:33:04;;;;;;;14.90;9.45;;;;;;;4.33;42.24;99152.09;1723165;83;21125;-70
2021/03/21 10:35:38;;;;;;;12.33;8.98;;;;;;;4.20;42.73;99149.20;1713129;83;21187;-70
2021/03/21 10:38:32;;;;;;;16.48;9.78;;;;;;;3.94;43.07;99147.13;1692552;85;21169;-70
2021/03/21 10:41:00;;;;;;;11.85;7.95;;;;;;;3.73;45.49;99146.48;1642567;87;21193;-71
2021/03/21 10:43:35;;;;;;;13.25;8.68;;;;;;;3.78;45.20;99139.86;1655059;87;21192;-69
2021/03/21 10:46:03;;;;;;;12.43;8.20;;;;;;;3.85;45.16;99126.53;1666215;85;21192;-70
2021/03/21 10:48:36;;;;;;;11.43;7.90;;;;;;;3.98;44.75;99138.86;1657218;85;21151;-71
2021/03/21 10:51:08;;;;;;;10.70;7.72;;;;;;;3.78;42.96;99133.95;1684326;85;21167;-70
2021/03/21 10:53:48;;;;;;;12.18;8.15;;;;;;;3.45;44.73;99125.26;1684229;85;21305;-70
2021/03/21 10:56:22;;;;;;;12.98;8.88;;;;;;;3.42;46.57;99126.27;1674541;84;21213;-70
2021/03/21 10:59:08;;;;;;;14.43;9.08;;;;;;;3.61;46.33;99129.59;1673937;86;21248;-71
2021/03/21 11:01:41;;;;;;;13.85;9.80;;;;;;;3.83;45.58;99113.83;1656541;86;21201;-69
2021/03/21 11:04:26;;;;;;;26.20;13.60;;;;;;;4.04;44.84;99119.02;1673847;86;21204;-69
2021/03/21 11:07:18;;;;;;;14.23;9.03;;;;;;;4.08;44.49;99116.66;1646491;87;21210;-69
2021/03/21 11:09:52;;;;;;;11.60;8.00;;;;;;;4.05;44.67;99102.33;1648588;86;21251;-68
2021/03/21 11:12:31;;;;;;;15.05;7.92;;;;;;;3.98;45.21;99098.46;1647993;84;21150;-69
2021/03/21 11:15:22;;;;;;;11.43;8.33;;;;;;;4.01;44.61;99100.13;1671233;86;21252;-70
2021/03/21 11:17:51;;;;;;;11.30;8.53;;;;;;;4.01;44.51;99091.23;1673352;86;21165;-70
2021/03/21 11:20:43;;;;;;;14.53;8.95;;;;;;;3.84;44.97;99085.03;1673282;85;21208;-70
2021/03/21 11:23:21;;;;;;;11.80;8.35;;;;;;;3.65;45.34;99064.24;1673466;86;21315;-70
2021/03/21 11:25:49;;;;;;;;;;;;;;;3.57;44.06;99067.36;1674009;86;21217;-71
2021/03/21 11:28:36;;;;;;;;;;;;;;;3.59;45.49;99075.17;1675267;86;20271;-70
2021/03/21 11:30:58;;;;;;;10.23;7.20;;;;;;;3.55;44.15;99078.05;1670904;86;20216;-69
2021/03/21 11:33:39;;;;;;;16.57;9.55;;;;;;;3.47;44.99;99061.80;1673416;86;21569;-69
2021/03/21 11:36:18;;;;;;;21.77;12.23;;;;;;;3.58;45.20;99050.69;1672723;86;21376;-69
2021/03/21 11:38:46;;;;;;;11.97;8.58;;;;;;;3.74;44.96;99048.52;1653604;86;21189;-70
2021/03/21 11:41:33;;;;;;;12.20;8.40;;;;;;;3.81;44.86;99041.92;1645040;87;21216;-70
2021/03/21 11:44:25;;;;;;;11.05;7.40;;;;;;;3.79;43.39;99039.20;1662739;85;21598;-71
2021/03/21 11:46:57;;;;;;;13.62;9.18;;;;;;;3.75;44.28;99038.87;1673417;86;21221;-71
2021/03/21 11:49:25;;;;;;;16.02;9.43;;;;;;;3.82;44.52;99030.63;1670055;84;21221;-70
2021/03/21 11:52:01;;;;;;;18.37;10.03;;;;;;;3.83;44.10;99022.81;1673405;85;21205;-70
2021/03/21 11:54:32;;;;;;;11.63;8.90;;;;;;;3.86;44.32;99017.75;1660043;86;21514;-70
2021/03/21 11:57:25;;;;;;;12.68;8.15;;;;;;;3.90;43.94;99015.38;1647445;86;21169;-71
2021/03/21 12:00:08;;;;;;;11.75;8.15;;;;;;;3.85;44.04;99020.18;1668833;86;21195;-71
2021/03/21 12:02:53;;;;;;;12.07;8.38;;;;;;;3.90;44.53;99016.73;1676930;84;21532;-71
2021/03/21 12:05:22;;;;;;;14.65;8.30;;;;;;;4.01;44.17;99003.70;1698439;84;21224;-70
2021/03/21 12:07:50;;;;;;;16.62;10.20;;;;;;;4.03;43.45;99004.30;1698377;84;21599;-71
2021/03/21 12:10:30;;;;;;;15.10;9.28;;;;;;;3.97;44.64;98999.34;1698331;84;21301;-71
2021/03/21 12:12:58;;;;;;;12.90;8.90;;;;;;;4.00;44.60;98992.11;1698264;84;21158;-71
2021/03/21 12:15:33;;;;;;;11.60;7.65;;;;;;;4.08;46.09;99000.84;1671926;84;21215;-70
2021/03/21 12:18:09;;;;;;;11.80;8.05;;;;;;;4.07;44.00;98993.84;1698314;84;21143;-70
2021/03/21 12:20:47;;;;;;;11.30;7.22;;;;;;;4.00;43.53;98998.06;1697800;84;21767;-70
2021/03/21 12:23:35;;;;;;;10.88;7.10;;;;;;;3.93;42.83;98997.41;1698370;84;21575;-69
2021/03/21 12:26:17;;;;;;;10.68;7.70;;;;;;;3.89;43.76;98986.32;1698357;84;21155;-70
2021/03/21 12:28:57;;;;;;;24.65;12.33;;;;;;;3.89;44.01;98997.09;1698639;84;21329;-68
2021/03/21 12:31:35;;;;;;;12.65;8.08;;;;;;;3.87;44.70;98987.08;1697820;84;21199;-70
2021/03/21 12:34:29;;;;;;;12.68;7.78;;;;;;;3.82;44.73;98984.86;1698457;84;21340;-71
2021/03/21 12:37:12;;;;;;;12.03;7.87;;;;;;;3.68;44.10;98987.59;1687590;84;21321;-69